createdAt,value
2022-08-04T00:00:32.114Z,6.17
2022-08-04T00:03:13.121Z,3.90
2022-08-04T00:05:54.267Z,9.13
2022-08-04T00:08:32.141Z,3.97
2022-08-04T00:11:02.733Z,5.37
2022-08-04T00:13:59.715Z,7.80
2022-08-04T00:16:32.809Z,4.90
2022-08-04T00:19:09.993Z,8.30
2022-08-04T00:21:40.949Z,8.00
2022-08-04T00:24:11.745Z,4.53
2022-08-04T00:26:42.738Z,5.77
2022-08-04T00:29:11.695Z,4.80
2022-08-04T00:31:54.891Z,4.00
2022-08-04T00:34:27.732Z,4.17
2022-08-04T00:36:57.376Z,4.83
2022-08-04T00:39:25.827Z,4.13
2022-08-04T00:42:14.544Z,4.53
2022-08-04T00:44:53.738Z,3.80
2022-08-04T00:47:34.333Z,5.40
2022-08-04T00:50:09.401Z,6.23
2022-08-04T00:52:46.331Z,4.70
2022-08-04T00:55:26.839Z,7.43
2022-08-04T00:58:14.130Z,4.83
2022-08-04T01:00:46.166Z,6.40
2022-08-04T01:03:19.992Z,4.87
2022-08-04T01:05:56.565Z,7.73
2022-08-04T01:08:56.700Z,3.70
2022-08-04T01:11:57.680Z,4.20
2022-08-04T01:14:47.950Z,3.73
2022-08-04T01:17:22.176Z,4.60
2022-08-04T01:20:06.833Z,4.23
2022-08-04T01:23:04.753Z,3.77
2022-08-04T01:26:41.965Z,3.43
2022-08-04T01:29:06.198Z,3.77
2022-08-04T01:31:44.161Z,3.20
2022-08-04T01:34:14.475Z,3.40
2022-08-04T01:36:50.047Z,5.70
2022-08-04T01:39:36.393Z,3.93
2022-08-04T01:42:05.812Z,3.27
2022-08-04T01:44:41.611Z,3.70
2022-08-04T01:47:11.106Z,3.53
2022-08-04T01:49:41.091Z,4.70
2022-08-04T01:52:11.289Z,5.27
2022-08-04T01:54:43.011Z,3.57
2022-08-04T01:57:37.713Z,3.37
2022-08-04T02:00:02.224Z,2.80
2022-08-04T02:02:32.461Z,3.97
2022-08-04T02:05:00.904Z,2.97
2022-08-04T02:07:52.831Z,3.67
2022-08-04T02:10:28.536Z,4.53
2022-08-04T02:13:09.186Z,5.10
2022-08-04T02:15:45.064Z,2.87
2022-08-04T02:18:19.924Z,3.33
2022-08-04T02:20:50.865Z,5.27
2022-08-04T02:23:26.578Z,2.70
2022-08-04T02:25:58.372Z,3.43
2022-08-04T02:28:34.005Z,3.60
2022-08-04T02:31:16.912Z,3.83
2022-08-04T02:33:47.071Z,3.43
2022-08-04T02:36:22.496Z,3.50
2022-08-04T02:38:57.009Z,3.43
2022-08-04T02:41:27.477Z,3.20
2022-08-04T02:44:00.936Z,4.50
2022-08-04T02:46:31.419Z,3.10
2022-08-04T02:48:59.951Z,4.03
2022-08-04T02:51:30.564Z,3.30
2022-08-04T02:53:59.901Z,4.97
2022-08-04T02:56:30.601Z,3.83
2022-08-04T02:59:01.129Z,4.90
2022-08-04T03:01:31.627Z,3.53
2022-08-04T03:04:22.112Z,3.40
2022-08-04T03:07:26.526Z,3.87
2022-08-04T03:10:43.008Z,3.40
2022-08-04T03:14:05.216Z,7.80
2022-08-04T03:17:02.395Z,3.07
2022-08-04T03:20:09.272Z,3.10
2022-08-04T03:23:14.195Z,3.77
2022-08-04T03:26:21.954Z,3.73
2022-08-04T03:29:33.181Z,3.30
2022-08-04T03:32:30.394Z,6.33
2022-08-04T03:35:22.943Z,3.67
2022-08-04T03:38:11.784Z,4.07
2022-08-04T03:41:10.052Z,3.87
2022-08-04T03:44:15.637Z,3.50
2022-08-04T03:47:09.279Z,4.40
2022-08-04T03:50:10.351Z,4.30
2022-08-04T03:53:09.568Z,3.80
2022-08-04T03:55:46.449Z,5.93
2022-08-04T03:58:44.974Z,3.80
2022-08-04T04:01:25.559Z,4.33
2022-08-04T04:04:09.689Z,5.17
2022-08-04T04:07:04.303Z,3.80
2022-08-04T04:10:07.506Z,4.03
2022-08-04T04:12:53.763Z,5.60
2022-08-04T04:15:38.990Z,5.93
2022-08-04T04:18:18.089Z,3.30
2022-08-04T04:21:00.281Z,3.70
2022-08-04T04:23:51.834Z,4.90
2022-08-04T04:26:45.819Z,5.40
2022-08-04T04:29:29.738Z,4.87
2022-08-04T04:32:06.764Z,7.90
2022-08-04T04:34:46.394Z,5.33
2022-08-04T04:37:38.603Z,7.77
2022-08-04T04:40:27.953Z,16.90
2022-08-04T04:43:18.196Z,11.27
2022-08-04T04:45:53.021Z,13.67
2022-08-04T04:48:31.010Z,9.40
2022-08-04T04:51:07.489Z,14.90
2022-08-04T04:53:44.481Z,14.17
2022-08-04T04:56:19.217Z,13.93
2022-08-04T04:58:48.080Z,15.53
2022-08-04T05:01:31.925Z,19.90
2022-08-04T05:04:22.822Z,31.47
2022-08-04T05:07:05.508Z,28.17
2022-08-04T05:09:43.642Z,36.10
2022-08-04T05:14:31.348Z,32.10
2022-08-04T05:15:15.858Z,48.80
2022-08-04T05:17:50.974Z,31.33
2022-08-04T05:20:24.157Z,19.30
2022-08-04T05:22:56.595Z,19.30
2022-08-04T05:25:27.978Z,21.63
2022-08-04T05:28:02.136Z,24.33
2022-08-04T05:30:32.168Z,31.03
2022-08-04T05:33:06.198Z,37.60
2022-08-04T05:35:47.883Z,96.93
2022-08-04T05:38:29.089Z,54.63
2022-08-04T05:40:59.284Z,40.80
2022-08-04T05:43:28.988Z,33.77
2022-08-04T05:45:58.439Z,27.00
2022-08-04T05:48:26.913Z,17.93
2022-08-04T05:51:00.576Z,10.27
2022-08-04T05:53:29.693Z,18.90
2022-08-04T05:55:59.650Z,13.70
2022-08-04T05:58:31.043Z,22.70
2022-08-04T06:01:00.151Z,15.53
2022-08-04T06:03:28.891Z,26.30
2022-08-04T06:06:02.420Z,79.80
2022-08-04T06:08:31.011Z,42.63
2022-08-04T06:11:00.818Z,22.27
2022-08-04T06:13:48.056Z,39.13
2022-08-04T06:16:28.535Z,23.97
2022-08-04T06:20:02.865Z,25.87
2022-08-04T06:21:51.663Z,21.87
2022-08-04T06:24:26.791Z,69.70
2022-08-04T06:27:00.161Z,128.63
2022-08-04T06:29:51.250Z,80.03
2022-08-04T06:32:33.624Z,59.07
2022-08-04T06:35:06.922Z,48.97
2022-08-04T06:37:41.869Z,38.10
2022-08-04T06:40:29.845Z,24.83
2022-08-04T06:43:01.309Z,15.23
2022-08-04T06:45:31.037Z,15.97
2022-08-04T06:47:59.934Z,10.63
2022-08-04T06:51:28.021Z,15.23
2022-08-04T06:53:21.265Z,15.80
2022-08-04T06:55:51.028Z,25.77
2022-08-04T06:58:20.634Z,12.93
2022-08-04T07:00:50.795Z,96.00
2022-08-04T07:03:21.834Z,49.37
2022-08-04T07:05:50.810Z,12.90
2022-08-04T07:08:19.433Z,13.53
2022-08-04T07:10:51.275Z,9.43
2022-08-04T07:13:20.239Z,13.37
2022-08-04T07:15:50.401Z,6.47
2022-08-04T07:18:20.054Z,7.80
2022-08-04T07:20:48.948Z,7.60
2022-08-04T07:23:19.956Z,9.53
2022-08-04T07:26:12.450Z,6.03
2022-08-04T07:28:44.151Z,11.23
2022-08-04T07:31:34.379Z,8.37
2022-08-04T07:34:17.659Z,12.33
2022-08-04T07:36:55.584Z,9.47
2022-08-04T07:39:47.689Z,13.90
2022-08-04T07:42:21.339Z,8.63
2022-08-04T07:44:50.006Z,19.50
2022-08-04T07:47:25.306Z,10.77
2022-08-04T07:49:58.004Z,13.00
2022-08-04T07:52:27.382Z,8.97
2022-08-04T07:54:56.584Z,12.57
2022-08-04T07:57:40.432Z,15.10
2022-08-04T08:00:11.696Z,20.30
2022-08-04T08:02:41.488Z,10.90
2022-08-04T08:05:11.617Z,20.77
2022-08-04T08:07:50.947Z,13.37
2022-08-04T08:10:28.969Z,9.27
2022-08-04T08:12:59.583Z,27.73
2022-08-04T08:15:31.405Z,23.87
2022-08-04T08:18:01.257Z,13.90
2022-08-04T08:20:31.963Z,9.63
2022-08-04T08:23:01.752Z,10.93
2022-08-04T08:25:31.566Z,15.00
2022-08-04T08:28:04.737Z,6.40
2022-08-04T08:30:34.346Z,9.27
2022-08-04T08:33:07.289Z,11.33
2022-08-04T08:35:54.217Z,12.60
2022-08-04T08:38:35.184Z,12.67
2022-08-04T08:41:25.190Z,9.67
2022-08-04T08:44:07.659Z,12.40
2022-08-04T08:46:51.386Z,9.53
2022-08-04T08:50:04.460Z,6.73
2022-08-04T08:52:56.439Z,6.17
2022-08-04T08:55:38.419Z,8.13
2022-08-04T08:58:22.008Z,6.53
2022-08-04T09:01:01.242Z,11.87
2022-08-04T09:03:43.350Z,5.63
2022-08-04T09:06:33.861Z,20.53
2022-08-04T09:09:10.477Z,13.40
2022-08-04T09:11:41.509Z,12.10
2022-08-04T09:14:16.552Z,3.63
2022-08-04T09:16:50.630Z,8.80
2022-08-04T09:19:38.041Z,4.10
2022-08-04T09:22:13.103Z,5.43
2022-08-04T09:24:49.828Z,5.97
2022-08-04T09:27:20.787Z,6.17
2022-08-04T09:29:54.065Z,10.00
2022-08-04T09:32:38.689Z,15.27
2022-08-04T09:35:19.140Z,24.90
2022-08-04T09:37:56.859Z,21.37
2022-08-04T09:40:52.504Z,19.80
2022-08-04T09:44:43.072Z,17.37
2022-08-04T09:46:22.446Z,13.03
2022-08-04T09:48:56.348Z,20.23
2022-08-04T09:51:57.316Z,13.33
2022-08-04T09:54:38.277Z,11.50
2022-08-04T09:57:15.546Z,3.93
2022-08-04T09:59:50.099Z,3.27
2022-08-04T10:02:19.495Z,4.07
2022-08-04T10:04:49.059Z,3.63
2022-08-04T10:07:39.789Z,3.20
2022-08-04T10:10:22.316Z,4.50
2022-08-04T10:13:09.046Z,4.47
2022-08-04T10:15:42.470Z,2.80
2022-08-04T10:18:24.364Z,2.83
2022-08-04T10:21:11.653Z,5.83
2022-08-04T10:23:56.337Z,4.17
2022-08-04T10:26:38.396Z,3.37
2022-08-04T10:29:12.214Z,2.93
2022-08-04T10:31:45.816Z,2.90
2022-08-04T10:34:16.766Z,3.17
2022-08-04T10:36:55.446Z,2.67
2022-08-04T10:39:43.232Z,2.20
2022-08-04T10:42:24.644Z,2.20
2022-08-04T10:45:00.306Z,17.60
2022-08-04T10:47:35.550Z,2.77
2022-08-04T10:50:08.538Z,3.07
2022-08-04T10:52:41.118Z,14.60
2022-08-04T10:55:14.566Z,8.27
2022-08-04T10:57:56.764Z,2.70
2022-08-04T11:00:27.037Z,7.37
2022-08-04T11:02:59.949Z,2.70
2022-08-04T11:05:32.241Z,9.07
2022-08-04T11:08:07.582Z,11.40
2022-08-04T11:10:42.580Z,4.13
2022-08-04T11:13:29.423Z,2.70
2022-08-04T11:16:04.451Z,45.47
2022-08-04T11:18:38.426Z,22.10
2022-08-04T11:21:19.942Z,20.73
2022-08-04T11:23:53.987Z,6.97
2022-08-04T11:26:28.680Z,6.20
2022-08-04T11:29:07.167Z,4.50
2022-08-04T11:31:38.280Z,6.47
2022-08-04T11:34:16.728Z,27.83
2022-08-04T11:36:48.179Z,16.53
2022-08-04T11:39:20.006Z,14.43
2022-08-04T11:41:55.361Z,12.27
2022-08-04T11:44:33.606Z,15.30
2022-08-04T11:47:09.990Z,5.70
2022-08-04T11:49:57.294Z,6.90
2022-08-04T11:52:27.936Z,6.20
2022-08-04T11:54:57.322Z,10.77
2022-08-04T11:57:35.786Z,5.33
2022-08-04T12:00:11.150Z,3.00
2022-08-04T12:03:12.069Z,10.63
2022-08-04T12:05:47.337Z,8.43
2022-08-04T12:08:28.052Z,18.73
2022-08-04T12:11:19.318Z,9.83
2022-08-04T12:13:50.920Z,6.80
2022-08-04T12:16:30.718Z,12.60
2022-08-04T12:19:01.609Z,15.10
2022-08-04T12:21:36.562Z,9.50
2022-08-04T12:24:09.625Z,2.60
2022-08-04T12:26:41.545Z,2.57
2022-08-04T12:29:12.815Z,6.73
2022-08-04T12:31:47.323Z,8.53
2022-08-04T12:34:19.097Z,4.20
2022-08-04T12:36:55.913Z,5.00
2022-08-04T12:39:24.730Z,2.80
2022-08-04T12:41:59.825Z,5.50
2022-08-04T12:44:38.045Z,2.73
2022-08-04T12:47:27.841Z,7.17
2022-08-04T12:50:04.025Z,4.73
2022-08-04T12:53:00.451Z,4.37
2022-08-04T12:55:30.266Z,4.97
2022-08-04T12:58:03.270Z,2.33
2022-08-04T13:00:40.683Z,5.17
2022-08-04T13:03:12.917Z,7.63
2022-08-04T13:05:42.630Z,3.60
2022-08-04T13:08:12.364Z,2.50
2022-08-04T13:10:42.547Z,2.20
2022-08-04T13:13:16.975Z,3.50
2022-08-04T13:15:47.509Z,3.93
2022-08-04T13:18:30.371Z,5.70
2022-08-04T13:21:20.365Z,4.90
2022-08-04T13:24:20.426Z,2.87
2022-08-04T13:26:54.322Z,2.60
2022-08-04T13:30:00.602Z,2.00
2022-08-04T13:32:22.485Z,2.53
2022-08-04T13:34:55.511Z,5.07
2022-08-04T13:37:27.673Z,4.23
2022-08-04T13:39:57.080Z,7.03
2022-08-04T13:42:27.984Z,6.90
2022-08-04T13:44:59.095Z,2.73
2022-08-04T13:47:30.721Z,6.97
2022-08-04T13:50:17.118Z,14.93
2022-08-04T13:52:46.539Z,4.77
2022-08-04T13:55:23.407Z,1.93
2022-08-04T13:57:59.078Z,3.43
2022-08-04T14:00:29.727Z,5.33
2022-08-04T14:03:23.809Z,4.87
2022-08-04T14:06:15.042Z,4.87
2022-08-04T14:08:55.647Z,5.80
2022-08-04T14:12:09.303Z,31.57
2022-08-04T14:14:24.443Z,28.27
2022-08-04T14:17:01.260Z,26.37
2022-08-04T14:19:35.961Z,28.23
2022-08-04T14:22:06.457Z,18.27
2022-08-04T14:24:34.674Z,11.37
2022-08-04T14:27:03.043Z,5.00
2022-08-04T14:29:38.927Z,6.80
2022-08-04T14:32:14.652Z,14.23
2022-08-04T14:34:46.205Z,7.00
2022-08-04T14:37:20.546Z,7.03
2022-08-04T14:40:17.853Z,1.93
2022-08-04T14:42:54.577Z,2.40
2022-08-04T14:45:32.730Z,4.57
2022-08-04T14:48:01.626Z,5.70
2022-08-04T14:50:38.487Z,7.13
2022-08-04T14:53:10.392Z,3.20
2022-08-04T14:55:40.033Z,8.00
2022-08-04T14:58:35.263Z,4.27
2022-08-04T15:01:10.322Z,7.83
2022-08-04T15:03:50.379Z,10.03
2022-08-04T15:06:24.001Z,6.70
2022-08-04T15:08:55.314Z,9.80
2022-08-04T15:11:24.858Z,15.70
2022-08-04T15:13:53.725Z,7.00
2022-08-04T15:16:22.699Z,3.00
2022-08-04T15:18:52.870Z,28.93
2022-08-04T15:21:23.960Z,45.97
2022-08-04T15:23:53.669Z,38.23
2022-08-04T15:26:29.218Z,24.73
2022-08-04T15:29:00.601Z,12.03
2022-08-04T15:32:05.739Z,11.77
2022-08-04T15:34:18.575Z,7.53
2022-08-04T15:36:56.801Z,3.30
2022-08-04T15:39:37.248Z,3.23
2022-08-04T15:42:20.499Z,2.50
2022-08-04T15:45:14.338Z,2.10
2022-08-04T15:47:42.583Z,1.80
2022-08-04T15:50:28.454Z,2.33
2022-08-04T15:53:10.329Z,1.83
2022-08-04T15:55:44.810Z,2.13
2022-08-04T15:58:17.551Z,2.80
2022-08-04T16:01:17.912Z,2.40
2022-08-04T16:03:59.302Z,3.20
2022-08-04T16:06:49.947Z,3.60
2022-08-04T16:09:46.149Z,1.87
2022-08-04T16:12:54.380Z,2.07
2022-08-04T16:15:41.585Z,1.90
2022-08-04T16:18:25.304Z,2.40
2022-08-04T16:20:58.095Z,3.23
2022-08-04T16:23:56.922Z,3.03
2022-08-04T16:26:46.103Z,1.70
2022-08-04T16:29:39.125Z,1.57
2022-08-04T16:32:19.867Z,2.00
2022-08-04T16:34:55.104Z,2.70
2022-08-04T16:37:32.601Z,2.13
2022-08-04T16:40:37.447Z,2.20
2022-08-04T16:43:09.352Z,1.47
2022-08-04T16:45:43.341Z,2.03
2022-08-04T16:48:13.925Z,1.87
2022-08-04T16:50:54.853Z,1.60
2022-08-04T16:54:03.227Z,2.03
2022-08-04T16:56:15.577Z,2.03
2022-08-04T16:58:53.751Z,1.70
2022-08-04T17:01:33.551Z,3.23
2022-08-04T17:04:08.380Z,4.17
2022-08-04T17:06:44.375Z,1.57
2022-08-04T17:09:18.927Z,2.10
2022-08-04T17:11:48.879Z,1.63
2022-08-04T17:14:31.338Z,2.17
2022-08-04T17:17:04.973Z,2.53
2022-08-04T17:19:39.526Z,1.73
2022-08-04T17:22:25.445Z,1.80
2022-08-04T17:25:10.492Z,1.53
2022-08-04T17:30:31.005Z,2.13
2022-08-04T17:33:04.621Z,1.73
2022-08-04T17:35:43.624Z,1.97
2022-08-04T17:38:16.540Z,1.57
2022-08-04T17:40:53.397Z,2.07
2022-08-04T17:44:04.223Z,1.73
2022-08-04T17:46:45.017Z,2.10
2022-08-04T17:49:24.768Z,2.43
2022-08-04T17:52:06.505Z,2.13
2022-08-04T17:54:44.973Z,2.53
2022-08-04T17:57:21.931Z,2.40
2022-08-04T17:59:58.929Z,2.33
2022-08-04T18:02:34.834Z,2.73
2022-08-04T18:05:12.135Z,1.90
2022-08-04T18:08:39.428Z,2.97
2022-08-04T18:10:51.692Z,2.27
2022-08-04T18:13:29.122Z,4.20
2022-08-04T18:16:22.317Z,6.00
2022-08-04T18:19:10.320Z,4.20
2022-08-04T18:21:46.080Z,3.90
2022-08-04T18:24:35.404Z,3.37
2022-08-04T18:27:30.039Z,2.83
2022-08-04T18:30:34.056Z,3.53
2022-08-04T18:33:24.566Z,3.73
2022-08-04T18:36:32.978Z,4.80
2022-08-04T18:42:01.871Z,4.13
2022-08-04T18:44:51.835Z,6.43
2022-08-04T18:47:58.767Z,3.70
2022-08-04T18:51:11.324Z,4.07
2022-08-04T18:53:35.761Z,9.20
2022-08-04T18:59:10.357Z,4.07
2022-08-04T19:02:09.318Z,5.30
2022-08-04T19:04:41.230Z,4.60
2022-08-04T19:07:29.185Z,4.73
2022-08-04T19:10:26.495Z,9.00
2022-08-04T19:13:03.945Z,8.00
2022-08-04T19:16:16.619Z,14.93
2022-08-04T19:18:57.498Z,6.83
2022-08-04T19:22:01.423Z,7.77
2022-08-04T19:24:35.274Z,6.93
2022-08-04T19:27:06.944Z,12.97
2022-08-04T19:29:40.659Z,10.23
2022-08-04T19:35:03.052Z,8.03
2022-08-04T19:38:01.654Z,6.40
2022-08-04T19:40:33.582Z,7.53
2022-08-04T19:43:14.247Z,7.53
2022-08-04T19:45:44.965Z,6.57
2022-08-04T19:48:19.487Z,5.90
2022-08-04T19:50:48.991Z,6.97
2022-08-04T19:53:20.090Z,6.60
2022-08-04T19:56:06.208Z,5.03
2022-08-04T19:58:34.697Z,6.80
2022-08-04T20:01:03.457Z,6.33
2022-08-04T20:04:10.266Z,5.93
2022-08-04T20:06:24.585Z,8.20
2022-08-04T20:08:53.254Z,6.77
2022-08-04T20:11:24.054Z,5.53
2022-08-04T20:13:54.729Z,6.07
2022-08-04T20:16:29.467Z,5.97
2022-08-04T20:21:55.005Z,6.10
2022-08-04T20:24:38.229Z,5.23
2022-08-04T20:27:15.519Z,5.73
2022-08-04T20:29:46.069Z,6.47
2022-08-04T20:32:20.162Z,6.00
2022-08-04T20:34:52.988Z,5.00
2022-08-04T20:37:23.824Z,7.10
2022-08-04T20:39:55.327Z,5.03
2022-08-04T20:42:27.186Z,6.90
2022-08-04T20:45:02.030Z,5.27
2022-08-04T20:47:35.593Z,4.87
2022-08-04T20:50:09.067Z,5.17
2022-08-04T20:52:39.665Z,7.00
2022-08-04T20:55:10.052Z,5.77
2022-08-04T20:57:49.743Z,9.23
2022-08-04T21:03:07.697Z,8.47
2022-08-04T21:05:37.544Z,4.90
2022-08-04T21:08:06.029Z,6.40
2022-08-04T21:10:35.442Z,5.67
2022-08-04T21:13:03.726Z,4.77
2022-08-04T21:15:58.842Z,6.57
2022-08-04T21:18:29.272Z,6.40
2022-08-04T21:20:59.567Z,4.33
2022-08-04T21:23:28.873Z,4.03
2022-08-04T21:26:04.185Z,4.10
2022-08-04T21:28:32.895Z,6.40
2022-08-04T21:33:52.184Z,5.07
2022-08-04T21:36:22.300Z,4.40
2022-08-04T21:38:55.766Z,5.00
2022-08-04T21:41:26.949Z,5.40
2022-08-04T21:43:56.416Z,4.53
2022-08-04T21:46:27.376Z,5.03
2022-08-04T21:48:58.550Z,5.13
2022-08-04T21:51:57.946Z,6.33
2022-08-04T21:54:18.092Z,7.57
2022-08-04T21:56:50.625Z,5.13
2022-08-04T21:59:23.841Z,5.30
2022-08-04T22:02:01.318Z,5.90
2022-08-04T22:04:32.483Z,5.77
2022-08-04T22:10:02.542Z,5.10
2022-08-04T22:12:33.627Z,4.67
2022-08-04T22:16:02.664Z,9.43
2022-08-04T22:17:54.316Z,5.37
2022-08-04T22:20:27.612Z,6.97
2022-08-04T22:23:15.432Z,4.30
2022-08-04T22:25:55.394Z,4.50
2022-08-04T22:28:27.840Z,5.23
2022-08-04T22:30:57.960Z,4.30
2022-08-04T22:33:55.187Z,4.27
2022-08-04T22:36:16.931Z,4.93
2022-08-04T22:38:54.970Z,5.17
2022-08-04T22:41:33.869Z,4.77
2022-08-04T22:44:02.260Z,4.07
2022-08-04T22:46:31.397Z,4.50
2022-08-04T22:49:02.091Z,4.53
2022-08-04T22:51:30.320Z,5.03
2022-08-04T22:54:01.719Z,4.73
2022-08-04T22:56:37.969Z,7.53
2022-08-04T22:59:11.213Z,7.10
2022-08-04T23:01:59.154Z,8.93
2022-08-04T23:04:30.577Z,7.37
2022-08-04T23:07:05.210Z,4.37
2022-08-04T23:09:50.163Z,4.87
2022-08-04T23:12:26.532Z,4.93
2022-08-04T23:14:56.240Z,4.10
2022-08-04T23:17:24.832Z,3.77
2022-08-04T23:19:58.221Z,6.60
2022-08-04T23:22:41.166Z,3.60
2022-08-04T23:25:15.201Z,4.20
2022-08-04T23:27:51.234Z,3.87
2022-08-04T23:30:24.884Z,5.10
2022-08-04T23:32:59.168Z,5.37
2022-08-04T23:35:27.543Z,6.17
2022-08-04T23:37:56.968Z,4.40
2022-08-04T23:40:33.317Z,5.50
2022-08-04T23:43:17.045Z,4.10
2022-08-04T23:46:06.930Z,4.47
2022-08-04T23:48:35.416Z,4.40
2022-08-04T23:51:14.066Z,5.80
2022-08-04T23:54:02.508Z,4.10
2022-08-04T23:56:34.378Z,5.23
2022-08-04T23:59:03.922Z,4.27
